Time;durP1;ratioP1;P1;durP2;ratioP2;P2;SDS_P1;SDS_P2;PMS_P1;PMS_P2;Temp;Humidity;BMP_temperature;BMP_pressure;BME280_temperature;BME280_humidity;BME280_pressure;Samples;Min_cycle;Max_cycle;Signal;HPM_P1;HPM_P2
2021/10/16 07:01:12;;;;;;;0.47;0.47;;;;;;;8.14;95.92;99241.44;5575088;23;20047;-72
2021/10/16 07:03:37;;;;;;;3.60;0.98;;;;;;;8.10;95.41;99239.69;4965122;28;20122;-72
2021/10/16 07:06:03;;;;;;;0.45;0.45;;;;;;;8.19;95.66;99237.97;4961100;28;20034;-72
2021/10/16 07:08:29;;;;;;;1.00;1.00;;;;;;;8.01;94.76;99231.97;4960525;28;20023;-77
2021/10/16 07:10:56;;;;;;;0.47;0.47;;;;;;;8.07;95.05;99247.44;4955271;28;20054;-77
2021/10/16 07:13:22;;;;;;;0.90;0.90;;;;;;;7.84;96.32;99240.56;4956632;28;20034;-76
2021/10/16 07:15:47;;;;;;;0.60;0.60;;;;;;;7.78;96.75;99240.53;4994465;23;20058;-71
2021/10/16 07:18:12;;;;;;;1.10;1.05;;;;;;;7.94;96.45;99247.47;4983110;28;20460;-71
2021/10/16 07:20:38;;;;;;;0.88;0.88;;;;;;;7.93;96.03;99250.91;4986158;28;20111;-70
2021/10/16 07:23:05;;;;;;;1.23;1.23;;;;;;;7.83;96.62;99254.34;4976110;28;20058;-70
2021/10/16 07:25:30;;;;;;;1.70;1.60;;;;;;;7.87;97.09;99250.88;4961249;28;20038;-70
2021/10/16 07:27:56;;;;;;;1.27;1.20;;;;;;;7.97;96.85;99255.19;4956383;28;20138;-71
2021/10/16 07:30:21;;;;;;;1.15;1.15;;;;;;;7.96;96.16;99261.19;4955723;28;20101;-71
2021/10/16 07:32:47;;;;;;;1.83;1.70;;;;;;;7.96;96.43;99261.19;4956167;28;20077;-70
2021/10/16 07:35:13;;;;;;;0.80;0.80;;;;;;;8.04;95.99;99268.09;4956284;28;20027;-71
2021/10/16 07:37:38;;;;;;;1.80;1.23;;;;;;;8.09;95.81;99266.38;4955913;28;20396;-71
2021/10/16 07:40:04;;;;;;;1.17;1.13;;;;;;;8.12;95.77;99271.53;4956410;28;20020;-71
2021/10/16 07:42:29;;;;;;;1.45;1.35;;;;;;;8.55;93.70;99274.94;4953492;28;20114;-70
2021/10/16 07:44:55;;;;;;;0.88;0.85;;;;;;;8.57;93.83;99275.81;4951423;28;20163;-70
2021/10/16 07:47:20;;;;;;;1.13;1.08;;;;;;;8.80;93.01;99275.78;4956164;28;20542;-71
2021/10/16 07:49:45;;;;;;;0.43;0.43;;;;;;;8.61;92.83;99274.09;4956094;28;20133;-71
2021/10/16 07:52:11;;;;;;;1.17;1.13;;;;;;;8.69;92.74;99280.09;4956026;28;20118;-73
2021/10/16 07:54:36;;;;;;;0.70;0.70;;;;;;;8.82;91.67;99279.19;4955914;28;20085;-72
2021/10/16 07:57:01;;;;;;;0.73;0.73;;;;;;;8.72;92.09;99275.78;4955328;28;20389;-71
2021/10/16 07:59:28;;;;;;;1.50;1.42;;;;;;;8.60;92.25;99280.09;4955892;28;20162;-71
2021/10/16 08:01:53;;;;;;;1.23;1.13;;;;;;;8.82;92.13;99270.59;4955841;28;20023;-71
2021/10/16 08:04:18;;;;;;;1.25;1.25;;;;;;;8.72;91.68;99280.09;4955807;28;20498;-71
2021/10/16 08:06:44;;;;;;;0.70;0.70;;;;;;;8.85;91.72;99276.63;4955726;28;20034;-71
2021/10/16 08:09:09;;;;;;;1.65;1.55;;;;;;;8.79;92.05;99275.75;4953688;28;20503;-72
2021/10/16 08:11:36;;;;;;;2.42;1.95;;;;;;;8.84;91.35;99280.03;4940315;28;20393;-72
2021/10/16 08:14:02;;;;;;;0.95;0.95;;;;;;;8.97;91.38;99276.56;4947098;28;20401;-72
2021/10/16 08:16:28;;;;;;;1.30;0.77;;;;;;;9.19;nan;99274.78;4955233;28;20030;-71
2021/10/16 08:18:53;;;;;;;1.77;1.67;;;;;;;9.25;89.45;99272.16;4956204;28;20067;-71
2021/10/16 08:21:19;;;;;;;1.52;1.45;;;;;;;9.19;89.86;99272.19;4965238;28;20019;-71
2021/10/16 08:23:44;;;;;;;1.60;1.50;;;;;;;9.35;89.89;99279.88;4955611;28;20038;-71
2021/10/16 08:26:09;;;;;;;2.15;2.05;;;;;;;9.36;89.88;99269.50;4962741;28;20034;-71
2021/10/16 08:28:35;;;;;;;0.68;0.68;;;;;;;9.62;88.81;99276.25;4962538;28;20019;-71
2021/10/16 08:31:01;;;;;;;0.52;0.52;;;;;;;9.81;87.91;99277.84;4958329;28;20035;-71
2021/10/16 08:33:27;;;;;;;1.27;1.05;;;;;;;9.84;87.47;99277.84;4958289;28;20460;-71
2021/10/16 08:35:53;;;;;;;1.25;1.25;;;;;;;9.98;87.09;99286.38;4961815;28;20045;-71
2021/10/16 08:38:18;;;;;;;1.83;1.73;;;;;;;9.92;87.13;99282.97;4954546;28;20028;-71
2021/10/16 08:40:44;;;;;;;7.10;2.47;;;;;;;9.99;87.08;99287.22;4957542;28;20090;-71
2021/10/16 08:43:10;;;;;;;3.50;1.58;;;;;;;10.05;87.19;99288.03;4955436;28;20050;-71
2021/10/16 08:45:36;;;;;;;1.23;1.23;;;;;;;10.32;87.39;99290.44;4955982;28;20425;-71
2021/10/16 08:48:04;;;;;;;1.30;1.20;;;;;;;10.23;86.18;99283.56;4960530;28;20033;-71
2021/10/16 08:50:30;;;;;;;1.23;1.15;;;;;;;10.13;86.01;99290.56;4963959;28;20019;-71
2021/10/16 08:52:56;;;;;;;1.40;1.40;;;;;;;10.33;85.30;99286.97;4960851;28;20106;-71
2021/10/16 08:55:22;;;;;;;1.05;1.02;;;;;;;10.39;85.24;99295.53;4958634;28;20114;-71
2021/10/16 08:57:48;;;;;;;1.00;0.95;;;;;;;10.40;84.90;99294.69;4959278;28;20468;-71
2021/10/16 09:00:49;;;;;;;2.70;1.77;;;;;;;10.26;85.01;99296.53;4954758;28;20030;-71
2021/10/16 09:03:18;;;;;;;2.03;1.92;;;;;;;10.44;83.92;99304.16;4958358;28;20602;-71
2021/10/16 09:05:56;;;;;;;1.20;0.93;;;;;;;10.58;83.53;99297.97;4956114;28;20424;-71
2021/10/16 09:08:37;;;;;;;0.90;0.90;;;;;;;10.69;82.66;99296.16;4956997;28;20034;-72
2021/10/16 09:11:24;;;;;;;0.98;0.98;;;;;;;10.99;82.43;99295.81;4953095;28;20085;-71
2021/10/16 09:13:54;;;;;;;1.27;1.27;;;;;;;10.95;81.68;99294.13;4948543;28;20066;-76
2021/10/16 09:16:30;;;;;;;1.38;1.33;;;;;;;11.30;80.80;99295.44;4943998;28;20027;-77
2021/10/16 09:18:57;;;;;;;1.30;1.20;;;;;;;11.42;79.85;99294.44;4951356;28;20042;-73
2021/10/16 09:21:25;;;;;;;1.85;1.75;;;;;;;10.82;81.55;99292.53;4952537;28;20027;-74
2021/10/16 09:24:11;;;;;;;3.08;1.63;;;;;;;11.25;80.60;99289.44;4952423;28;20123;-73
2021/10/16 09:26:39;;;;;;;0.95;0.95;;;;;;;11.07;80.51;99291.41;4951987;28;20102;-73
2021/10/16 09:29:07;;;;;;;3.50;3.20;;;;;;;11.38;80.17;99288.44;4952717;28;20023;-73
2021/10/16 09:31:34;;;;;;;3.10;1.38;;;;;;;11.36;79.90;99290.16;4953405;28;20019;-73
2021/10/16 09:34:00;;;;;;;2.05;1.90;;;;;;;11.62;77.45;99291.56;4954120;28;20488;-73
2021/10/16 09:36:26;;;;;;;2.80;1.95;;;;;;;11.67;78.39;99294.97;4954154;28;20163;-73
2021/10/16 09:38:52;;;;;;;1.67;1.58;;;;;;;11.89;77.64;99286.00;4954186;28;20027;-73
2021/10/16 09:41:24;;;;;;;2.00;1.90;;;;;;;12.14;77.01;99285.63;4950395;28;20038;-70
2021/10/16 09:43:50;;;;;;;1.70;1.60;;;;;;;12.54;74.28;99289.25;4940141;28;20032;-75
2021/10/16 09:46:17;;;;;;;0.88;0.88;;;;;;;12.73;74.35;99287.19;4947423;28;20174;-77
2021/10/16 09:48:45;;;;;;;1.35;1.25;;;;;;;13.29;71.27;99276.56;4948151;28;20492;-74
2021/10/16 09:51:11;;;;;;;1.85;1.75;;;;;;;13.60;70.85;99277.63;4949646;28;20031;-77
2021/10/16 09:53:36;;;;;;;1.35;1.35;;;;;;;13.88;68.82;99282.22;4952770;28;20043;-75
2021/10/16 09:56:02;;;;;;;1.70;1.60;;;;;;;14.58;67.48;99275.28;4953803;28;20024;-79
2021/10/16 09:58:28;;;;;;;1.98;1.50;;;;;;;14.98;63.99;99279.44;4953757;28;20058;-77
2021/10/16 10:00:54;;;;;;;3.17;1.25;;;;;;;16.07;60.60;99271.84;4953980;28;20408;-77
2021/10/16 10:03:24;;;;;;;0.88;0.88;;;;;;;16.83;57.35;99270.19;4970325;28;20042;-77
2021/10/16 10:05:51;;;;;;;1.75;1.65;;;;;;;16.53;58.19;99266.81;4973378;28;20033;-77
2021/10/16 10:08:19;;;;;;;0.93;0.93;;;;;;;16.33;59.14;99277.94;4973506;28;20060;-77
2021/10/16 10:10:45;;;;;;;1.55;1.45;;;;;;;16.12;58.99;99266.44;4973088;28;20023;-77
2021/10/16 10:13:12;;;;;;;2.47;1.58;;;;;;;16.49;58.92;99266.09;4945854;28;20026;-77
2021/10/16 10:15:37;;;;;;;1.92;1.40;;;;;;;16.79;57.06;99273.81;4945955;29;20039;-77
2021/10/16 10:18:59;;;;;;;1.13;1.13;;;;;;;16.74;56.46;99270.50;4939794;29;20027;-77
2021/10/16 10:20:50;;;;;;;2.38;2.15;;;;;;;17.48;55.41;99259.03;4934824;29;20114;-77
2021/10/16 10:23:21;;;;;;;1.42;1.33;;;;;;;16.83;56.05;99272.78;4934755;29;20066;-77
2021/10/16 10:25:46;;;;;;;1.58;1.48;;;;;;;16.33;58.82;99275.34;4934848;29;20024;-77
2021/10/16 10:28:11;;;;;;;1.98;1.58;;;;;;;15.97;59.57;99267.81;4934649;29;20026;-76
2021/10/16 10:30:40;;;;;;;5.40;2.90;;;;;;;15.68;60.60;99266.09;4934706;29;20497;-76
2021/10/16 10:33:15;;;;;;;2.42;2.22;;;;;;;15.46;61.11;99260.63;4934468;29;20024;-77
2021/10/16 10:35:40;;;;;;;1.35;1.00;;;;;;;16.33;59.15;99259.66;4934672;29;20040;-76
2021/10/16 10:38:31;;;;;;;1.42;1.30;;;;;;;15.90;60.75;99261.03;4934513;29;20035;-75
2021/10/16 10:40:57;;;;;;;4.32;1.52;;;;;;;16.20;59.41;99259.22;4936493;29;20051;-76
2021/10/16 10:43:38;;;;;;;2.08;1.88;;;;;;;16.64;58.50;99254.25;4944718;28;20051;-77
2021/10/16 10:46:08;;;;;;;2.17;1.20;;;;;;;15.44;60.47;99262.44;4948444;29;20122;-76
2021/10/16 10:48:46;;;;;;;1.60;1.50;;;;;;;16.24;59.19;99255.56;4935570;29;20051;-77
2021/10/16 10:51:37;;;;;;;1.38;1.25;;;;;;;14.94;63.39;99261.28;4934305;29;20024;-75
2021/10/16 10:54:13;;;;;;;0.82;0.82;;;;;;;14.38;66.03;99265.34;4934335;29;20370;-77
2021/10/16 10:56:40;;;;;;;1.55;1.45;;;;;;;13.73;68.18;99262.59;4934517;29;20023;-76
2021/10/16 10:59:08;;;;;;;2.15;2.03;;;;;;;14.53;65.46;99251.09;4934336;29;20027;-77
2021/10/16 11:01:44;;;;;;;1.42;1.35;;;;;;;14.70;64.32;99239.34;4933032;29;20437;-77
2021/10/16 11:04:10;;;;;;;1.48;1.38;;;;;;;15.63;63.32;99241.84;4934310;29;20027;-77
2021/10/16 11:06:36;;;;;;;2.00;1.90;;;;;;;17.32;57.79;99226.47;4934573;29;20028;-77
2021/10/16 11:09:14;;;;;;;1.25;1.15;;;;;;;18.06;54.05;99225.28;4934388;29;20561;-77
2021/10/16 11:11:49;;;;;;;3.27;1.37;;;;;;;18.93;52.05;99220.69;4938867;29;20027;-77
2021/10/16 11:14:16;;;;;;;1.25;1.15;;;;;;;19.58;49.66;99218.56;4941865;29;20063;-76
2021/10/16 11:16:58;;;;;;;2.90;1.73;;;;;;;21.04;46.67;99207.69;4949982;29;20032;-74
2021/10/16 11:19:23;;;;;;;0.98;0.95;;;;;;;22.00;44.22;99207.59;4934316;29;20055;-79
2021/10/16 11:21:57;;;;;;;1.45;1.35;;;;;;;20.49;46.57;99215.84;4933904;29;20032;-79
2021/10/16 11:24:23;;;;;;;2.13;1.17;;;;;;;21.62;44.61;99203.66;4933853;29;20030;-79
2021/10/16 11:26:56;;;;;;;2.08;1.88;;;;;;;19.85;47.93;99205.91;4933922;29;20051;-77
2021/10/16 11:29:36;;;;;;;2.28;2.13;;;;;;;21.40;45.41;99199.56;4934198;29;20075;-73
2021/10/16 11:32:12;;;;;;;1.42;1.33;;;;;;;22.98;41.07;99199.13;4936519;29;20035;-73
2021/10/16 11:34:37;;;;;;;1.70;1.50;;;;;;;23.10;40.41;99194.84;4937771;29;20455;-72
2021/10/16 11:37:03;;;;;;;1.77;1.67;;;;;;;22.37;42.23;99188.75;4937392;29;20102;-73
2021/10/16 11:39:29;;;;;;;1.90;1.67;;;;;;;20.59;44.80;99195.16;4937581;28;20067;-73
2021/10/16 11:41:55;;;;;;;1.75;1.45;;;;;;;22.13;42.81;99185.78;4941633;29;20055;-73
2021/10/16 11:44:21;;;;;;;1.52;1.42;;;;;;;24.00;37.56;99177.63;4945674;29;20028;-73
2021/10/16 11:47:04;;;;;;;1.38;0.90;;;;;;;25.23;36.04;99176.16;4952742;28;20087;-73
2021/10/16 11:49:30;;;;;;;1.40;1.30;;;;;;;25.77;33.55;99175.78;4937921;29;20031;-73
2021/10/16 11:51:56;;;;;;;1.02;0.98;;;;;;;24.56;34.64;99171.16;4937204;29;20091;-73
2021/10/16 11:54:22;;;;;;;0.82;0.82;;;;;;;25.38;34.80;99164.47;4937318;29;20103;-73
2021/10/16 11:56:58;;;;;;;0.88;0.88;;;;;;;24.43;36.86;99159.69;4937258;29;20047;-73
2021/10/16 11:59:23;;;;;;;1.05;0.95;;;;;;;23.88;36.48;99163.38;4937296;29;20111;-73
2021/10/16 12:01:49;;;;;;;1.08;0.98;;;;;;;23.13;38.26;99165.59;4937026;29;20106;-73
2021/10/16 12:04:14;;;;;;;2.22;1.48;;;;;;;22.26;41.05;99148.00;4937054;29;20030;-73
2021/10/16 12:06:41;;;;;;;1.00;0.95;;;;;;;21.37;42.45;99156.69;4936065;29;20023;-73
2021/10/16 12:09:11;;;;;;;1.10;0.98;;;;;;;19.97;45.67;99160.59;4937061;29;20024;-73
2021/10/16 12:11:37;;;;;;;0.98;0.98;;;;;;;18.81;46.91;99155.59;4941463;29;20114;-73
2021/10/16 12:14:07;;;;;;;0.68;0.68;;;;;;;18.47;49.29;99146.59;4944515;29;20550;-73
2021/10/16 12:16:41;;;;;;;1.00;1.00;;;;;;;18.47;48.92;99147.44;4952797;29;20062;-73
2021/10/16 12:19:17;;;;;;;0.90;0.90;;;;;;;17.43;51.24;99145.69;4936690;29;20024;-73
2021/10/16 12:21:44;;;;;;;0.85;0.85;;;;;;;17.06;52.34;99152.34;4937043;28;20034;-72
2021/10/16 12:24:24;;;;;;;0.45;0.45;;;;;;;17.92;50.65;99143.72;4936762;29;20393;-72
2021/10/16 12:27:09;;;;;;;10.25;0.95;;;;;;;18.18;49.54;99130.34;4937328;29;20034;-73
2021/10/16 12:29:39;;;;;;;0.90;0.75;;;;;;;17.99;48.21;99137.31;4936787;29;20508;-72
2021/10/16 12:32:07;;;;;;;0.77;0.77;;;;;;;17.31;49.58;99133.94;4936581;29;20497;-72
2021/10/16 12:34:34;;;;;;;0.90;0.60;;;;;;;17.03;49.85;99131.56;4936554;29;20063;-72
2021/10/16 12:37:05;;;;;;;1.67;1.58;;;;;;;16.82;52.37;99133.19;4936720;29;20023;-72
2021/10/16 12:39:34;;;;;;;1.02;1.00;;;;;;;17.62;51.06;99128.31;4936403;29;20397;-72
2021/10/16 12:42:09;;;;;;;0.60;0.60;;;;;;;17.73;49.71;99128.75;4940657;28;20130;-72
2021/10/16 12:44:37;;;;;;;1.73;1.13;;;;;;;17.55;48.37;99129.50;4946368;29;20111;-72
2021/10/16 12:47:12;;;;;;;0.55;0.55;;;;;;;17.95;46.90;99122.63;4949683;28;20071;-72
2021/10/16 12:49:46;;;;;;;0.50;0.32;;;;;;;17.93;47.38;99124.44;4904762;29;20540;-72
2021/10/16 12:52:31;;;;;;;2.28;2.05;;;;;;;17.95;48.94;99125.25;4916433;29;20056;-72
2021/10/16 12:55:01;;;;;;;1.02;1.02;;;;;;;18.10;48.96;99118.50;4917134;29;20040;-72
2021/10/16 12:57:28;;;;;;;0.45;0.45;;;;;;;17.40;48.46;99119.59;4917169;29;20032;-72
2021/10/16 12:59:53;;;;;;;0.30;0.30;;;;;;;17.62;49.63;99116.97;4917212;29;20028;-72
2021/10/16 13:02:19;;;;;;;2.85;2.58;;;;;;;17.67;50.37;99112.41;4917087;29;20032;-74
2021/10/16 13:04:49;;;;;;;3.40;0.95;;;;;;;17.17;53.36;99118.78;4917050;29;20051;-71
2021/10/16 13:07:15;;;;;;;;;;;;;;;17.11;54.54;99108.53;4917378;29;20116;-71
2021/10/16 13:09:41;;;;;;;1.38;1.27;;;;;;;16.10;58.37;99112.28;4917058;29;20363;-71
2021/10/16 13:12:07;;;;;;;1.55;1.45;;;;;;;15.89;58.76;99113.00;4921190;29;20038;-71
2021/10/16 13:14:32;;;;;;;1.05;1.05;;;;;;;16.99;56.68;99109.00;4926893;29;20104;-71
2021/10/16 13:16:57;;;;;;;2.10;1.48;;;;;;;15.63;59.46;99111.25;4929185;29;20413;-71
2021/10/16 13:19:23;;;;;;;1.90;1.73;;;;;;;15.53;60.52;99110.69;4916784;29;20362;-71
2021/10/16 13:21:48;;;;;;;0.95;0.95;;;;;;;16.46;59.92;99106.63;4916549;29;20055;-71
2021/10/16 13:24:14;;;;;;;3.90;2.00;;;;;;;16.85;58.97;99100.84;4916662;29;20055;-71
2021/10/16 13:26:39;;;;;;;0.98;0.85;;;;;;;16.92;56.55;99099.69;4916673;29;20036;-71
2021/10/16 13:29:05;;;;;;;1.67;1.33;;;;;;;17.23;56.61;99096.72;4928689;29;20028;-71
2021/10/16 13:31:32;;;;;;;2.33;1.45;;;;;;;16.74;59.53;99092.56;4925663;29;20079;-71
2021/10/16 13:33:58;;;;;;;3.83;1.95;;;;;;;15.58;61.78;99100.94;4916982;29;20509;-71
2021/10/16 13:36:23;;;;;;;2.97;2.70;;;;;;;15.73;62.00;99101.38;4916594;29;20055;-71
2021/10/16 13:38:49;;;;;;;1.15;1.08;;;;;;;15.73;62.22;99097.00;4916348;29;20047;-71
2021/10/16 13:41:14;;;;;;;2.90;2.70;;;;;;;15.75;61.39;99104.78;4920513;29;20034;-71
2021/10/16 13:43:40;;;;;;;1.00;1.00;;;;;;;16.23;60.76;99091.75;4924337;29;20500;-71
2021/10/16 13:46:05;;;;;;;0.57;0.57;;;;;;;16.34;58.87;99093.97;4916343;29;20439;-71
2021/10/16 13:48:32;;;;;;;1.13;0.98;;;;;;;14.91;62.37;99105.69;4916221;29;20593;-71
2021/10/16 13:50:57;;;;;;;1.65;1.50;;;;;;;14.86;63.84;99102.38;4916338;29;20127;-71
2021/10/16 13:53:22;;;;;;;1.15;1.05;;;;;;;15.17;62.43;99097.88;4915465;29;20036;-71
2021/10/16 13:55:48;;;;;;;1.17;1.00;;;;;;;15.11;60.46;99100.72;4916200;29;20074;-71
2021/10/16 13:58:13;;;;;;;1.00;1.00;;;;;;;15.27;59.84;99097.59;4916010;29;20020;-71
2021/10/16 14:00:38;;;;;;;1.42;1.17;;;;;;;15.54;60.80;99095.88;4931728;29;20023;-71
2021/10/16 14:03:04;;;;;;;0.80;0.80;;;;;;;15.74;59.51;99103.06;4915756;29;20026;-71
2021/10/16 14:05:29;;;;;;;0.57;0.57;;;;;;;15.52;59.46;99106.38;4916063;29;20032;-71
2021/10/16 14:07:54;;;;;;;0.85;0.85;;;;;;;15.36;59.08;99097.31;4916081;29;20016;-71
2021/10/16 14:10:19;;;;;;;0.98;0.98;;;;;;;15.02;60.50;99106.19;4915952;29;20115;-71
2021/10/16 14:12:45;;;;;;;0.95;0.85;;;;;;;15.02;61.09;99102.75;4923926;29;20107;-71
2021/10/16 14:15:10;;;;;;;0.60;0.60;;;;;;;15.35;59.64;99095.63;4919922;29;20055;-71
2021/10/16 14:17:35;;;;;;;1.77;1.63;;;;;;;15.55;59.53;99097.56;4915761;29;20398;-71
2021/10/16 14:20:01;;;;;;;0.77;0.77;;;;;;;15.23;60.03;99101.22;4915808;29;20474;-72
2021/10/16 14:22:27;;;;;;;0.82;0.57;;;;;;;15.19;60.57;99103.09;4915686;29;20038;-71
2021/10/16 14:24:55;;;;;;;0.32;0.32;;;;;;;14.93;61.92;99097.81;4915713;29;20028;-71
2021/10/16 14:27:23;;;;;;;2.60;1.20;;;;;;;14.81;61.17;99094.69;4916232;29;20064;-72
2021/10/16 14:29:53;;;;;;;0.57;0.57;;;;;;;14.58;62.89;99100.56;4927482;29;20071;-72
2021/10/16 14:32:21;;;;;;;1.35;1.25;;;;;;;14.54;64.04;99100.69;4918573;29;20456;-72
2021/10/16 14:34:47;;;;;;;2.38;0.90;;;;;;;14.31;64.48;99098.69;4915532;29;20031;-71
2021/10/16 14:37:12;;;;;;;1.02;1.02;;;;;;;13.98;65.87;99092.69;4914522;29;20079;-71
2021/10/16 14:39:37;;;;;;;1.13;1.02;;;;;;;13.95;66.69;99088.41;4915602;29;20508;-71
2021/10/16 14:42:03;;;;;;;1.42;1.42;;;;;;;13.97;67.25;99089.19;4919928;29;20052;-71
2021/10/16 14:44:28;;;;;;;1.35;1.35;;;;;;;13.79;67.48;99092.31;4923343;29;20032;-71
2021/10/16 14:46:53;;;;;;;1.23;0.70;;;;;;;13.61;68.10;99091.03;4915544;29;20031;-71
2021/10/16 14:49:19;;;;;;;1.08;1.08;;;;;;;13.47;68.88;99087.91;4915642;29;20056;-71
2021/10/16 14:51:44;;;;;;;1.08;1.08;;;;;;;13.37;69.88;99082.91;4915315;29;20040;-71
2021/10/16 14:54:10;;;;;;;2.20;2.00;;;;;;;13.32;70.19;99078.72;4915619;29;20024;-71
2021/10/16 14:56:36;;;;;;;1.55;1.30;;;;;;;13.30;70.54;99091.78;4915476;29;20587;-71
2021/10/16 14:59:01;;;;;;;1.10;1.10;;;;;;;13.21;71.75;99086.75;4921002;29;20036;-71
2021/10/16 15:01:27;;;;;;;0.80;0.80;;;;;;;13.20;71.61;99089.38;4925002;29;20028;-71
2021/10/16 15:03:52;;;;;;;1.95;1.63;;;;;;;13.23;70.45;99089.34;4915511;29;20504;-71
2021/10/16 15:06:18;;;;;;;1.65;1.55;;;;;;;13.06;71.08;99092.34;4918657;29;20052;-71
2021/10/16 15:08:43;;;;;;;1.05;1.00;;;;;;;12.97;71.74;99082.13;4919321;29;20024;-71
2021/10/16 15:11:09;;;;;;;1.40;1.23;;;;;;;13.02;71.63;99091.53;4922578;29;20030;-71
2021/10/16 15:13:34;;;;;;;2.42;1.50;;;;;;;12.93;72.07;99091.75;4927856;29;20027;-71
2021/10/16 15:16:00;;;;;;;2.58;1.80;;;;;;;12.81;73.67;99092.00;4918884;29;20032;-71
2021/10/16 15:18:26;;;;;;;2.92;2.40;;;;;;;12.76;73.33;99088.66;4918916;29;20036;-71
2021/10/16 15:20:51;;;;;;;2.92;1.85;;;;;;;12.73;73.40;99094.78;4919034;29;20482;-71
2021/10/16 15:23:17;;;;;;;2.72;2.53;;;;;;;12.77;74.39;99090.38;4918690;29;20035;-71
2021/10/16 15:25:42;;;;;;;1.88;1.77;;;;;;;12.86;73.25;99091.03;4918879;29;20103;-71
2021/10/16 15:28:07;;;;;;;1.83;1.73;;;;;;;12.83;73.22;99090.25;4918824;29;20099;-71
2021/10/16 15:30:33;;;;;;;1.88;1.52;;;;;;;12.93;73.21;99096.09;4928768;29;20028;-72
2021/10/16 15:32:58;;;;;;;1.70;1.60;;;;;;;12.99;73.01;99095.94;4937066;29;20504;-74
2021/10/16 15:35:23;;;;;;;0.93;0.93;;;;;;;12.94;74.08;99093.44;4937228;29;20133;-72
2021/10/16 15:37:49;;;;;;;0.77;0.77;;;;;;;12.96;73.08;99091.69;4937586;29;20066;-73
2021/10/16 15:40:15;;;;;;;3.92;0.90;;;;;;;13.00;73.04;99100.25;4937744;29;20078;-72
2021/10/16 15:42:40;;;;;;;1.40;0.88;;;;;;;12.95;74.33;99100.34;4929455;29;20035;-80
2021/10/16 15:45:06;;;;;;;1.95;1.58;;;;;;;12.96;73.91;99094.28;4923182;29;20119;-78
2021/10/16 15:47:32;;;;;;;0.68;0.50;;;;;;;12.93;73.28;99102.16;4918579;29;20028;-78
2021/10/16 15:49:58;;;;;;;2.42;1.65;;;;;;;12.92;73.36;99104.78;4918946;29;20051;-78
2021/10/16 15:52:23;;;;;;;1.60;1.50;;;;;;;12.79;74.34;99099.00;4918257;29;20052;-80
2021/10/16 15:54:49;;;;;;;0.82;0.60;;;;;;;12.73;74.85;99099.97;4918122;29;20439;-80
2021/10/16 15:57:14;;;;;;;1.13;1.02;;;;;;;12.67;75.76;99091.44;4917805;29;20028;-79
2021/10/16 15:59:40;;;;;;;3.85;3.55;;;;;;;12.65;75.49;99095.84;4928117;29;20067;-79
2021/10/16 16:02:06;;;;;;;1.70;1.60;;;;;;;12.49;76.85;99101.34;4923065;29;20032;-79
2021/10/16 16:04:31;;;;;;;1.20;1.20;;;;;;;12.24;78.59;99106.19;4916740;29;20305;-78
2021/10/16 16:06:56;;;;;;;2.13;1.75;;;;;;;12.15;79.40;99100.31;4918387;29;20119;-78
2021/10/16 16:09:22;;;;;;;0.60;0.60;;;;;;;12.01;80.11;99098.81;4918058;29;20028;-77
2021/10/16 16:11:47;;;;;;;0.80;0.80;;;;;;;11.93;81.25;99095.50;4922478;29;20028;-78
2021/10/16 16:14:13;;;;;;;1.25;1.17;;;;;;;11.90;81.79;99100.78;4925641;29;20032;-78
2021/10/16 16:16:38;;;;;;;1.45;1.35;;;;;;;11.69;82.23;99106.28;4917200;29;20036;-78
2021/10/16 16:19:04;;;;;;;1.40;1.00;;;;;;;11.62;82.37;99109.91;4923845;29;20120;-78
2021/10/16 16:21:29;;;;;;;0.45;0.45;;;;;;;11.56;82.81;99106.53;4936138;29;20094;-78
2021/10/16 16:23:55;;;;;;;0.70;0.70;;;;;;;11.38;83.26;99117.19;4936793;29;20047;-78
2021/10/16 16:26:21;;;;;;;0.57;0.57;;;;;;;11.49;83.05;99112.69;4936627;29;20032;-78
2021/10/16 16:28:47;;;;;;;1.05;1.05;;;;;;;11.19;84.59;99116.63;4936509;29;20572;-78
2021/10/16 16:31:14;;;;;;;1.25;1.15;;;;;;;10.96;85.65;99122.13;4928390;29;20032;-77
2021/10/16 16:33:44;;;;;;;1.80;0.88;;;;;;;11.05;86.82;99123.75;4936491;29;20024;-78
2021/10/16 16:36:10;;;;;;;5.88;2.10;;;;;;;10.86;86.02;99130.91;4936542;29;20031;-77
2021/10/16 16:38:35;;;;;;;0.60;0.60;;;;;;;10.69;86.95;99130.28;4936185;29;20505;-77
2021/10/16 16:41:01;;;;;;;0.68;0.68;;;;;;;10.59;87.51;99141.63;4936463;29;20078;-75
2021/10/16 16:43:27;;;;;;;1.38;0.65;;;;;;;10.55;87.68;99136.50;4928200;29;20028;-76
2021/10/16 16:45:53;;;;;;;1.35;1.25;;;;;;;10.47;88.05;99137.47;4936295;29;20389;-76
2021/10/16 16:48:18;;;;;;;0.70;0.70;;;;;;;10.32;88.66;99141.09;4935257;29;20023;-76
2021/10/16 16:50:44;;;;;;;1.88;1.77;;;;;;;10.22;89.40;99144.63;4936017;29;20039;-75
2021/10/16 16:53:09;;;;;;;0.65;0.65;;;;;;;10.07;89.92;99139.59;4934555;29;20106;-74
2021/10/16 16:55:34;;;;;;;0.68;0.68;;;;;;;10.06;89.84;99154.28;4935841;29;20031;-73
2021/10/16 16:58:00;;;;;;;0.80;0.80;;;;;;;9.99;90.19;99148.28;4935972;29;20032;-74
2021/10/16 17:00:25;;;;;;;0.70;0.70;;;;;;;9.85;90.75;99150.16;4928083;29;20067;-74
2021/10/16 17:02:50;;;;;;;0.75;0.75;;;;;;;9.77;91.16;99158.00;4935734;29;20094;-73
2021/10/16 17:05:16;;;;;;;2.47;1.30;;;;;;;9.68;91.42;99162.38;4936087;29;20090;-74
2021/10/16 17:07:41;;;;;;;0.60;0.55;;;;;;;9.57;91.93;99164.19;4935984;29;20027;-73
2021/10/16 17:10:07;;;;;;;1.98;1.00;;;;;;;9.49;92.60;99165.13;4936108;29;20031;-73
2021/10/16 17:12:32;;;;;;;1.13;0.70;;;;;;;9.42;92.59;99155.66;4927597;29;20491;-73
2021/10/16 17:14:58;;;;;;;1.13;1.02;;;;;;;9.38;92.98;99166.94;4922779;29;20179;-73
2021/10/16 17:17:23;;;;;;;0.95;0.95;;;;;;;9.21;93.44;99166.16;4916867;29;20031;-73
2021/10/16 17:19:49;;;;;;;1.10;1.10;;;;;;;9.19;93.60;99162.75;4916864;29;20032;-73
2021/10/16 17:22:15;;;;;;;1.00;1.00;;;;;;;9.16;93.97;99167.94;4916773;29;20036;-73
2021/10/16 17:24:41;;;;;;;1.30;0.50;;;;;;;9.10;93.60;99165.38;4916685;29;20524;-73
2021/10/16 17:27:06;;;;;;;2.10;1.58;;;;;;;8.96;94.50;99161.16;4916767;29;20028;-73
2021/10/16 17:29:33;;;;;;;2.25;2.15;;;;;;;8.92;94.71;99159.44;4925199;29;20517;-73
2021/10/16 17:31:58;;;;;;;3.70;2.03;;;;;;;8.83;95.14;99167.22;4922515;29;20031;-73
2021/10/16 17:34:28;;;;;;;1.40;1.08;;;;;;;8.92;95.21;99167.19;4916501;29;20027;-73
2021/10/16 17:36:54;;;;;;;;;;;;;;;8.80;95.71;99164.69;4917252;29;20027;-74
2021/10/16 17:39:20;;;;;;;4.82;4.45;;;;;;;8.69;96.18;99172.44;4916435;29;19921;-74
2021/10/16 17:41:45;;;;;;;4.55;3.50;;;;;;;8.63;96.27;99171.63;4920933;29;20032;-73
2021/10/16 17:44:11;;;;;;;3.20;3.00;;;;;;;8.55;96.65;99173.38;4922870;29;20026;-73
2021/10/16 17:46:37;;;;;;;5.82;5.10;;;;;;;8.57;96.80;99172.50;4916604;29;20028;-73
2021/10/16 17:49:02;;;;;;;3.47;3.25;;;;;;;8.50;96.79;99176.81;4916573;29;20020;-73
2021/10/16 17:51:28;;;;;;;2.92;2.72;;;;;;;8.47;97.51;99176.84;4916116;29;20028;-73
2021/10/16 17:53:53;;;;;;;8.48;3.75;;;;;;;8.42;98.23;99178.59;4916246;29;20098;-73
2021/10/16 17:56:18;;;;;;;2.10;2.00;;;;;;;8.29;98.17;99171.69;4916185;29;20036;-73
2021/10/16 17:58:44;;;;;;;2.55;1.98;;;;;;;8.24;98.22;99178.59;4919608;29;20035;-74
2021/10/16 18:01:11;;;;;;;2.45;2.28;;;;;;;8.21;98.60;99181.19;4928145;29;20088;-73
2021/10/16 18:03:37;;;;;;;1.00;1.00;;;;;;;8.19;98.47;99180.34;4916210;29;20032;-73
2021/10/16 18:06:02;;;;;;;2.28;2.10;;;;;;;8.11;98.19;99177.75;4915963;29;20099;-73
2021/10/16 18:08:28;;;;;;;1.25;1.25;;;;;;;8.07;98.54;99182.91;4916164;29;20492;-73
2021/10/16 18:10:53;;;;;;;11.68;3.90;;;;;;;7.95;99.27;99182.09;4917429;29;20039;-73
2021/10/16 18:13:19;;;;;;;3.22;2.92;;;;;;;7.97;99.00;99179.50;4926718;29;20035;-73
2021/10/16 18:15:44;;;;;;;10.52;5.57;;;;;;;7.92;98.82;99181.22;4915912;29;20449;-73
2021/10/16 18:18:09;;;;;;;8.82;6.65;;;;;;;7.84;98.81;99188.97;4915755;29;20028;-73
2021/10/16 18:20:36;;;;;;;3.85;3.55;;;;;;;7.81;99.32;99181.22;4916115;29;20024;-73
2021/10/16 18:23:02;;;;;;;3.58;3.28;;;;;;;7.83;99.42;99176.94;4915748;29;20027;-73
2021/10/16 18:25:27;;;;;;;5.55;3.28;;;;;;;7.83;99.18;99182.09;4915876;29;20441;-73
2021/10/16 18:27:53;;;;;;;2.92;2.67;;;;;;;7.84;99.43;99190.69;4915694;29;20574;-73
2021/10/16 18:30:18;;;;;;;1.92;1.75;;;;;;;7.79;99.46;99185.53;4931610;29;20032;-73
2021/10/16 18:32:43;;;;;;;7.20;3.88;;;;;;;7.85;99.32;99182.94;4915669;29;20032;-73
2021/10/16 18:35:09;;;;;;;2.08;1.92;;;;;;;7.86;98.44;99192.41;4915680;29;20034;-73
2021/10/16 18:37:35;;;;;;;2.60;2.50;;;;;;;7.77;98.35;99186.38;4915857;29;20033;-73